Tancred — LALX4 — position and weather

sailwx.info

Track history (hours):
 
Tides and Currents Weather Stations Pressure Air Temp Water Temp Dewpoint Dewpoint Depression Visibility Wind Speed Wind Dir Waves Ship Positions

Tancred

Last reported at 2016-Mar-13 01:16 UTC. Time now 2016-Dec-02 22:17 UTC.
Position N 31°55' E 120°10'.
Warning: this ship's position is months out of date.

Length 190 m; draft 8.2 m.

Type: Cargo ship. MMSI: 258787000.

Date/timePositionNaut miles runAvg speedWind from/ knotsBaromVisibWave heightAir tempDewpointWater temp
2016-Mar-13 01:16N 31°55' E 120°10'1 0.9
2016-Mar-13 00:23N 31°56' E 120°10'2 2.4
2016-Mar-12 23:26N 31°56' E 120°12'6 6.3
2016-Mar-12 22:33N 31°58' E 120°19'8 8.3
2016-Mar-12 21:31N 32°02' E 120°27'10 9.8
2016-Mar-12 20:33N 31°60' E 120°38'1110.7
2016-Mar-12 19:31N 31°58' E 120°51'1312.2
2016-Mar-12 18:26N 31°47' E 120°59'1112.0
2016-Mar-12 17:33N 31°42' E 121°10'5 5.2
2016-Mar-12 16:32N 31°39' E 121°15'0 0.0
2016-Mar-12 15:32N 31°39' E 121°15'0 0.2
2016-Mar-12 14:34N 31°39' E 121°15'0 0.0
2016-Mar-12 13:33N 31°39' E 121°15'0 0.1
2016-Mar-12 12:33N 31°39' E 121°15'0 0.1
2016-Mar-12 11:33N 31°39' E 121°15'0 0.1
2016-Mar-12 10:30N 31°39' E 121°15'0 0.0
2016-Mar-12 09:33N 31°39' E 121°15'4 4.3
2016-Mar-12 08:33N 31°35' E 121°18'1010.3
2016-Mar-12 07:33N 31°29' E 121°27'9 9.1
2016-Mar-12 06:33N 31°23' E 121°35'10 9.5
2016-Mar-12 05:29N 31°17' E 121°45'1111.8
2016-Mar-12 04:32N 31°09' E 121°54'1212.4
2016-Mar-12 03:32N 31°04' E 122°07'  
2016-Mar-09 06:31N 30°30' E 123°03'4 3.2
2016-Mar-09 05:21N 30°27' E 123°03'3 0.3
2016-Mar-08 16:31N 30°30' E 123°02'4 3.8
2016-Mar-08 15:33N 30°31' E 122°58'3 3.2
2016-Mar-08 14:28N 30°32' E 122°54'1 1.6
2016-Mar-08 13:33N 30°32' E 122°52'4 3.4
2016-Mar-08 12:21N 30°30' E 122°56'3 3.2
2016-Mar-08 11:33N 30°33' E 122°56'4 4.1
2016-Mar-08 10:32N 30°37' E 122°57'23 2.8
2016-Mar-08 02:20N 30°52' E 122°36'  
Track history (hours):
 
Tides and Currents Weather Stations Pressure Air Temp Water Temp Dewpoint Dewpoint Depression Visibility Wind Speed Wind Dir Waves Ship Positions

Tancred

Last reported at 2016-Mar-13 01:16 UTC. Time now 2016-Dec-02 22:17 UTC.
Position N 31°55' E 120°10'.
Warning: this ship's position is months out of date.

Length 190 m; draft 8.2 m.

Type: Cargo ship. MMSI: 258787000.

Date/timePositionNaut miles runAvg speedWind from/ knotsBaromVisibWave heightAir tempDewpointWater temp
2016-Mar-13 01:16N 31°55' E 120°10'1 0.9
2016-Mar-13 00:23N 31°56' E 120°10'2 2.4
2016-Mar-12 23:26N 31°56' E 120°12'6 6.3
2016-Mar-12 22:33N 31°58' E 120°19'8 8.3
2016-Mar-12 21:31N 32°02' E 120°27'10 9.8
2016-Mar-12 20:33N 31°60' E 120°38'1110.7
2016-Mar-12 19:31N 31°58' E 120°51'1312.2
2016-Mar-12 18:26N 31°47' E 120°59'1112.0
2016-Mar-12 17:33N 31°42' E 121°10'5 5.2
2016-Mar-12 16:32N 31°39' E 121°15'0 0.0
2016-Mar-12 15:32N 31°39' E 121°15'0 0.2
2016-Mar-12 14:34N 31°39' E 121°15'0 0.0
2016-Mar-12 13:33N 31°39' E 121°15'0 0.1
2016-Mar-12 12:33N 31°39' E 121°15'0 0.1
2016-Mar-12 11:33N 31°39' E 121°15'0 0.1
2016-Mar-12 10:30N 31°39' E 121°15'0 0.0
2016-Mar-12 09:33N 31°39' E 121°15'4 4.3
2016-Mar-12 08:33N 31°35' E 121°18'1010.3
2016-Mar-12 07:33N 31°29' E 121°27'9 9.1
2016-Mar-12 06:33N 31°23' E 121°35'10 9.5
2016-Mar-12 05:29N 31°17' E 121°45'1111.8
2016-Mar-12 04:32N 31°09' E 121°54'1212.4
2016-Mar-12 03:32N 31°04' E 122°07'  
2016-Mar-09 06:31N 30°30' E 123°03'4 3.2
2016-Mar-09 05:21N 30°27' E 123°03'3 0.3
2016-Mar-08 16:31N 30°30' E 123°02'4 3.8
2016-Mar-08 15:33N 30°31' E 122°58'3 3.2
2016-Mar-08 14:28N 30°32' E 122°54'1 1.6
2016-Mar-08 13:33N 30°32' E 122°52'4 3.4
2016-Mar-08 12:21N 30°30' E 122°56'3 3.2
2016-Mar-08 11:33N 30°33' E 122°56'4 4.1
2016-Mar-08 10:32N 30°37' E 122°57'23 2.8
2016-Mar-08 02:20N 30°52' E 122°36'  

Dump ship's entire track history